Time;durP1;ratioP1;P1;durP2;ratioP2;P2;SDS_P1;SDS_P2;PMS_P1;PMS_P2;Temp;Humidity;BMP_temperature;BMP_pressure;BME280_temperature;BME280_humidity;BME280_pressure;Samples;Min_cycle;Max_cycle;Signal;HPM_P1;HPM_P2
2023/11/23 00:00:20;;;;;;;14.85;10.38;;;2.20;99.90;;;;;;4988095;28;20023;-47
2023/11/23 00:02:46;;;;;;;13.15;9.30;;;2.20;99.90;;;;;;4986634;28;20045;-53
2023/11/23 00:05:12;;;;;;;20.83;11.35;;;2.10;99.90;;;;;;5005516;28;20367;-50
2023/11/23 00:07:38;;;;;;;17.80;11.07;;;2.10;99.90;;;;;;4988130;28;20023;-52
2023/11/23 00:10:04;;;;;;;16.88;11.23;;;2.10;99.90;;;;;;4990421;28;20034;-50
2023/11/23 00:12:30;;;;;;;16.45;11.23;;;2.10;99.90;;;;;;4988715;28;20118;-52
2023/11/23 00:14:55;;;;;;;16.75;11.55;;;2.20;99.90;;;;;;4990324;28;20023;-47
2023/11/23 00:17:21;;;;;;;16.00;10.65;;;2.30;99.90;;;;;;4990335;28;20493;-48
2023/11/23 00:19:47;;;;;;;19.88;11.70;;;2.20;99.90;;;;;;4990036;28;20027;-51
2023/11/23 00:22:13;;;;;;;14.85;9.98;;;2.20;99.90;;;;;;4988690;28;20029;-51
2023/11/23 00:24:39;;;;;;;15.45;10.75;;;2.10;99.90;;;;;;4989789;28;20030;-50
2023/11/23 00:27:14;;;;;;;17.88;10.60;;;2.00;99.90;;;;;;5004322;28;20395;-47
2023/11/23 00:29:40;;;;;;;20.98;10.70;;;2.00;99.90;;;;;;5004564;28;20041;-50
2023/11/23 00:32:07;;;;;;;14.82;10.18;;;2.00;99.90;;;;;;5004110;28;20022;-50
2023/11/23 00:34:33;;;;;;;18.50;10.63;;;1.90;99.90;;;;;;5002442;28;20097;-48
2023/11/23 00:36:59;;;;;;;18.00;11.32;;;1.90;99.90;;;;;;5004798;28;20525;-51
2023/11/23 00:39:25;;;;;;;15.55;10.95;;;1.80;99.90;;;;;;5004580;28;20406;-52
2023/11/23 00:41:51;;;;;;;15.80;9.63;;;1.80;99.90;;;;;;5004745;28;20030;-48
2023/11/23 00:44:17;;;;;;;18.35;11.48;;;1.80;99.90;;;;;;5004805;28;20030;-50
2023/11/23 00:46:43;;;;;;;16.98;9.80;;;1.80;99.90;;;;;;5003339;28;20538;-50
2023/11/23 00:49:09;;;;;;;15.63;9.80;;;1.80;99.90;;;;;;5004811;28;20038;-47
2023/11/23 00:51:36;;;;;;;17.98;11.35;;;1.80;99.90;;;;;;5004842;28;20029;-46
2023/11/23 00:54:04;;;;;;;10.98;8.05;;;1.80;99.90;;;;;;5004911;28;20068;-48
2023/11/23 00:56:30;;;;;;;11.77;8.25;;;1.80;99.90;;;;;;5004508;28;20034;-50
2023/11/23 00:58:55;;;;;;;13.43;9.68;;;1.80;99.90;;;;;;5003213;28;20035;-49
2023/11/23 01:01:21;;;;;;;15.25;8.57;;;1.70;99.90;;;;;;5005132;28;20033;-49
2023/11/23 01:03:47;;;;;;;12.25;8.30;;;1.70;99.90;;;;;;5004502;28;20026;-51
2023/11/23 01:06:12;;;;;;;13.10;9.18;;;1.70;99.90;;;;;;5001996;28;20522;-53
2023/11/23 01:08:38;;;;;;;12.68;8.15;;;1.70;99.90;;;;;;5004965;28;20038;-53
2023/11/23 01:11:04;;;;;;;16.60;11.00;;;1.60;99.90;;;;;;5004970;28;20023;-48
2023/11/23 01:13:29;;;;;;;18.65;11.18;;;1.60;99.90;;;;;;5005429;28;20474;-50
2023/11/23 01:15:56;;;;;;;12.38;9.13;;;1.50;99.90;;;;;;5005260;28;20087;-47
2023/11/23 01:18:23;;;;;;;11.73;8.35;;;1.50;99.90;;;;;;5004962;28;20541;-49
2023/11/23 01:20:50;;;;;;;13.05;8.32;;;1.60;99.90;;;;;;5004983;28;20042;-51
2023/11/23 01:23:16;;;;;;;15.68;9.30;;;1.60;99.90;;;;;;5004735;28;20026;-53
2023/11/23 01:25:41;;;;;;;13.93;9.57;;;1.60;99.90;;;;;;5004767;28;20151;-50
2023/11/23 01:28:07;;;;;;;15.15;8.65;;;;;;;;;;5004676;28;20018;-47
2023/11/23 01:30:33;;;;;;;12.15;8.88;;;1.60;99.90;;;;;;5004780;28;20568;-47
2023/11/23 01:32:58;;;;;;;14.27;8.63;;;1.70;99.90;;;;;;5004575;28;20109;-50
2023/11/23 01:35:24;;;;;;;17.88;9.00;;;1.60;99.90;;;;;;5004822;28;20022;-49
2023/11/23 01:37:49;;;;;;;11.95;9.05;;;1.70;99.90;;;;;;4995632;28;20027;-49
2023/11/23 01:40:16;;;;;;;14.55;8.70;;;1.60;99.90;;;;;;4991636;28;20082;-51
2023/11/23 01:42:42;;;;;;;15.27;10.43;;;1.60;99.90;;;;;;4991384;28;20023;-52
2023/11/23 01:45:09;;;;;;;14.55;9.35;;;1.60;99.90;;;;;;4990399;28;20175;-50
2023/11/23 01:47:37;;;;;;;13.85;8.25;;;;;;;;;;4991510;28;20087;-47
2023/11/23 01:50:03;;;;;;;16.02;10.13;;;;;;;;;;4991603;28;20439;-48
2023/11/23 01:52:30;;;;;;;11.10;8.23;;;1.40;99.90;;;;;;4991352;28;20018;-52
2023/11/23 01:54:56;;;;;;;15.50;9.95;;;1.40;99.90;;;;;;4990100;28;20444;-52
2023/11/23 01:57:22;;;;;;;15.48;9.07;;;1.40;99.90;;;;;;4991372;28;20022;-52
2023/11/23 01:59:49;;;;;;;13.80;9.93;;;1.40;99.90;;;;;;4991405;28;20018;-49
2023/11/23 02:02:15;;;;;;;13.93;10.25;;;1.40;99.90;;;;;;4991087;28;20054;-50
2023/11/23 02:04:41;;;;;;;15.15;9.68;;;1.40;99.90;;;;;;4990368;28;20052;-49
2023/11/23 02:07:06;;;;;;;14.30;9.23;;;1.30;99.90;;;;;;4989610;28;20121;-53
2023/11/23 02:09:32;;;;;;;16.05;10.20;;;1.30;99.90;;;;;;4991254;28;20029;-51
2023/11/23 02:11:58;;;;;;;13.98;8.88;;;1.30;99.90;;;;;;4990988;28;20061;-49
2023/11/23 02:14:24;;;;;;;14.63;9.05;;;1.20;99.90;;;;;;4991098;28;20034;-50
2023/11/23 02:16:50;;;;;;;15.23;10.00;;;1.20;99.90;;;;;;4991077;28;20030;-48
2023/11/23 02:19:16;;;;;;;13.02;9.02;;;1.20;99.90;;;;;;4991028;28;20029;-52
2023/11/23 02:21:43;;;;;;;15.55;9.25;;;1.20;99.90;;;;;;4990875;28;20452;-45
2023/11/23 02:24:11;;;;;;;15.02;9.55;;;1.20;99.90;;;;;;4990908;28;20022;-48
2023/11/23 02:26:36;;;;;;;12.02;9.18;;;1.20;99.90;;;;;;4990700;28;20087;-48
2023/11/23 02:29:04;;;;;;;15.40;9.55;;;1.20;99.90;;;;;;4991217;28;20027;-50
2023/11/23 02:31:31;;;;;;;15.68;9.38;;;1.30;99.90;;;;;;4990723;28;20022;-51
2023/11/23 02:33:57;;;;;;;12.95;9.13;;;1.30;99.90;;;;;;4990650;28;20030;-50
2023/11/23 02:36:22;;;;;;;11.63;8.85;;;1.30;99.90;;;;;;4990938;28;20030;-52
2023/11/23 02:38:48;;;;;;;14.10;9.63;;;1.30;99.90;;;;;;4989503;28;20482;-49
2023/11/23 02:41:13;;;;;;;15.45;7.10;;;1.20;99.90;;;;;;4990744;28;20034;-49
2023/11/23 02:43:39;;;;;;;13.88;8.75;;;1.20;99.90;;;;;;4990563;28;20034;-52
2023/11/23 02:46:04;;;;;;;11.02;8.07;;;1.20;99.90;;;;;;4990544;28;20034;-47
2023/11/23 02:48:30;;;;;;;13.32;8.45;;;1.10;99.90;;;;;;4988415;28;20026;-47
2023/11/23 02:50:55;;;;;;;14.68;8.13;;;1.10;99.90;;;;;;4990592;28;20037;-49
2023/11/23 02:53:31;;;;;;;12.15;9.30;;;1.10;99.90;;;;;;4990403;28;20037;-53
2023/11/23 02:56:00;;;;;;;17.20;9.75;;;;;;;;;;4990507;28;20022;-50
2023/11/23 02:58:26;;;;;;;15.60;9.68;;;;;;;;;;4990402;28;20063;-48
2023/11/23 03:00:52;;;;;;;14.80;10.35;;;;;;;;;;4989142;28;20466;-50
2023/11/23 03:03:18;;;;;;;15.90;10.90;;;;;;;;;;4989737;28;20041;-51
2023/11/23 03:05:43;;;;;;;14.93;9.98;;;1.10;99.90;;;;;;4989799;28;20030;-47
2023/11/23 03:08:09;;;;;;;15.70;10.68;;;1.10;99.90;;;;;;4989949;28;20030;-49
2023/11/23 03:10:34;;;;;;;18.42;11.13;;;1.00;99.90;;;;;;4990018;28;20484;-49
2023/11/23 03:13:02;;;;;;;16.92;10.38;;;1.10;99.90;;;;;;4989656;28;20026;-53
2023/11/23 03:15:28;;;;;;;20.33;11.45;;;1.10;99.90;;;;;;4988604;28;20022;-50
2023/11/23 03:17:54;;;;;;;18.02;10.23;;;1.10;99.90;;;;;;4989841;28;20034;-49
2023/11/23 03:20:19;;;;;;;19.52;11.38;;;1.10;99.90;;;;;;4990026;28;20091;-48
2023/11/23 03:22:45;;;;;;;14.60;10.50;;;1.10;99.90;;;;;;4989729;28;20488;-51
2023/11/23 03:25:10;;;;;;;15.40;9.43;;;1.10;99.90;;;;;;4988511;28;20038;-49
2023/11/23 03:27:38;;;;;;;17.15;10.40;;;1.00;99.90;;;;;;4988632;28;20033;-48
2023/11/23 03:30:05;;;;;;;17.30;11.07;;;1.10;99.90;;;;;;4989943;28;20030;-47
2023/11/23 03:32:32;;;;;;;17.20;10.18;;;1.20;99.90;;;;;;4989758;28;20378;-51
2023/11/23 03:34:58;;;;;;;17.15;11.00;;;1.20;99.90;;;;;;4988871;28;20485;-51
2023/11/23 03:37:23;;;;;;;20.17;11.05;;;1.20;99.90;;;;;;4988636;28;20034;-49
2023/11/23 03:39:49;;;;;;;17.55;10.52;;;1.30;99.90;;;;;;4988612;28;20389;-49
2023/11/23 03:42:14;;;;;;;20.50;12.27;;;1.20;99.90;;;;;;4989497;28;20079;-48
2023/11/23 03:44:40;;;;;;;16.65;11.43;;;1.20;99.90;;;;;;4989867;28;20102;-47
2023/11/23 03:47:05;;;;;;;15.35;11.13;;;1.20;99.90;;;;;;4989663;28;20026;-52
2023/11/23 03:49:31;;;;;;;16.77;10.68;;;1.30;99.90;;;;;;4988605;28;20023;-48
2023/11/23 03:51:57;;;;;;;20.60;11.63;;;1.30;99.90;;;;;;4989731;28;20117;-51
2023/11/23 03:54:23;;;;;;;16.48;11.00;;;1.30;99.90;;;;;;4989584;28;20095;-48
2023/11/23 03:56:48;;;;;;;15.05;10.63;;;1.30;99.90;;;;;;4989553;28;20037;-45
2023/11/23 03:59:14;;;;;;;17.75;11.55;;;1.40;99.90;;;;;;4989651;28;20034;-51
2023/11/23 04:01:47;;;;;;;15.23;10.68;;;1.40;99.90;;;;;;4989199;28;20482;-52
2023/11/23 04:04:12;;;;;;;16.92;11.10;;;1.60;99.90;;;;;;4988292;28;20064;-50
2023/11/23 04:06:39;;;;;;;15.23;11.23;;;1.70;99.90;;;;;;4988076;28;20058;-52
2023/11/23 04:09:05;;;;;;;22.75;12.02;;;1.70;99.90;;;;;;4988156;28;20351;-50
2023/11/23 04:11:30;;;;;;;17.85;11.02;;;1.80;99.90;;;;;;4989255;28;20022;-51
2023/11/23 04:13:56;;;;;;;15.48;10.35;;;1.80;99.90;;;;;;4989422;28;20037;-51
2023/11/23 04:16:21;;;;;;;14.35;10.00;;;1.80;99.90;;;;;;4989418;28;20485;-53
2023/11/23 04:18:47;;;;;;;18.75;11.43;;;1.80;99.90;;;;;;4989585;28;20071;-52
2023/11/23 04:21:14;;;;;;;18.70;10.23;;;1.80;99.90;;;;;;4989407;28;20151;-53
2023/11/23 04:23:40;;;;;;;17.30;9.70;;;1.90;99.90;;;;;;4988047;28;20034;-51
2023/11/23 04:26:06;;;;;;;14.57;9.88;;;1.90;99.90;;;;;;5019790;23;20045;-49
2023/11/23 04:28:31;;;;;;;15.70;10.73;;;1.80;99.90;;;;;;5051037;28;20100;-50
2023/11/23 04:30:57;;;;;;;18.38;10.98;;;1.80;99.90;;;;;;5051228;28;20155;-53
2023/11/23 04:33:22;;;;;;;14.68;9.35;;;1.80;99.90;;;;;;5049650;28;20064;-50
2023/11/23 04:35:48;;;;;;;18.02;11.13;;;1.80;99.90;;;;;;5051066;28;20107;-50
2023/11/23 04:38:14;;;;;;;13.88;10.20;;;1.90;99.90;;;;;;5051056;28;20064;-47
2023/11/23 04:40:40;;;;;;;16.17;10.18;;;1.90;99.90;;;;;;5051161;28;20370;-46
2023/11/23 04:43:05;;;;;;;16.73;9.55;;;1.90;99.90;;;;;;5050981;28;20485;-49
2023/11/23 04:45:31;;;;;;;12.68;9.48;;;2.00;99.90;;;;;;5050981;28;20032;-46
2023/11/23 04:47:56;;;;;;;14.25;9.45;;;2.20;99.90;;;;;;5051126;28;20075;-47
2023/11/23 04:50:22;;;;;;;14.27;10.25;;;2.00;99.90;;;;;;5049782;28;20032;-47
2023/11/23 04:52:48;;;;;;;18.90;10.25;;;2.00;99.90;;;;;;5050892;28;20063;-53
2023/11/23 04:55:13;;;;;;;13.82;9.52;;;2.00;99.90;;;;;;5049605;28;20025;-46
2023/11/23 04:57:39;;;;;;;15.13;9.15;;;2.00;99.90;;;;;;5050986;28;20040;-46
2023/11/23 05:00:06;;;;;;;17.13;9.90;;;2.10;99.90;;;;;;5050988;28;20061;-45
2023/11/23 05:02:31;;;;;;;13.52;9.05;;;2.10;99.90;;;;;;5050831;28;20029;-47
2023/11/23 05:04:57;;;;;;;14.10;8.77;;;2.10;99.90;;;;;;5050580;28;20021;-49
2023/11/23 05:07:25;;;;;;;16.33;9.35;;;2.20;99.90;;;;;;5050673;28;20048;-49
2023/11/23 05:09:51;;;;;;;14.77;9.82;;;2.10;99.90;;;;;;5050921;28;20024;-49
2023/11/23 05:12:17;;;;;;;12.57;9.57;;;2.10;99.90;;;;;;5051581;28;20410;-46
2023/11/23 05:14:42;;;;;;;15.52;9.68;;;2.10;99.90;;;;;;5053306;28;20112;-50
2023/11/23 05:17:08;;;;;;;21.90;9.73;;;2.10;99.90;;;;;;5054513;28;20554;-48
2023/11/23 05:19:35;;;;;;;15.90;9.73;;;2.10;99.90;;;;;;5054516;28;20036;-47
2023/11/23 05:22:01;;;;;;;16.25;10.07;;;2.00;99.90;;;;;;5054387;28;20032;-47
2023/11/23 05:24:26;;;;;;;15.95;9.75;;;2.10;99.90;;;;;;5054382;28;20075;-46
2023/11/23 05:26:54;;;;;;;16.95;10.18;;;2.10;99.90;;;;;;5052729;28;20075;-48
2023/11/23 05:29:20;;;;;;;18.15;9.38;;;2.20;99.90;;;;;;5054376;28;20067;-49
2023/11/23 05:31:45;;;;;;;16.08;9.35;;;2.10;99.90;;;;;;5054170;28;20393;-51
2023/11/23 05:34:11;;;;;;;13.68;9.40;;;2.20;99.90;;;;;;5054327;28;20025;-48
2023/11/23 05:36:36;;;;;;;17.45;10.07;;;2.20;99.90;;;;;;5053307;28;20044;-51
2023/11/23 05:39:02;;;;;;;16.25;9.77;;;2.20;99.90;;;;;;5054374;28;20033;-50
2023/11/23 05:41:27;;;;;;;15.45;9.27;;;2.20;99.90;;;;;;5054243;28;20055;-47
2023/11/23 05:43:53;;;;;;;13.73;9.48;;;2.20;99.90;;;;;;5054192;28;20396;-50
2023/11/23 05:46:18;;;;;;;11.93;8.35;;;2.20;99.90;;;;;;5054116;28;20027;-49
2023/11/23 05:48:44;;;;;;;13.27;8.93;;;2.20;99.90;;;;;;5054009;28;20071;-53
2023/11/23 05:51:09;;;;;;;11.90;9.05;;;2.20;99.90;;;;;;5053931;28;20032;-52
2023/11/23 05:53:35;;;;;;;14.70;9.25;;;2.30;99.90;;;;;;5053698;28;20107;-49
2023/11/23 05:56:02;;;;;;;14.57;8.98;;;2.20;99.90;;;;;;5054139;28;20024;-53
2023/11/23 05:58:28;;;;;;;15.50;8.90;;;2.30;99.90;;;;;;5054162;28;20021;-55
2023/11/23 06:00:53;;;;;;;12.27;8.98;;;2.30;99.90;;;;;;5052649;28;20085;-50
2023/11/23 06:03:19;;;;;;;14.25;9.35;;;2.40;99.90;;;;;;5052148;28;20029;-52
2023/11/23 06:05:45;;;;;;;15.05;8.75;;;2.40;99.90;;;;;;5053286;28;20131;-50
2023/11/23 06:08:10;;;;;;;10.88;8.50;;;2.40;99.90;;;;;;5053428;28;20028;-55
2023/11/23 06:10:37;;;;;;;11.20;8.80;;;2.40;99.90;;;;;;5053838;28;20021;-47
2023/11/23 06:13:02;;;;;;;11.93;9.00;;;2.40;99.90;;;;;;5053417;28;20024;-46
2023/11/23 06:15:28;;;;;;;11.90;8.50;;;2.30;99.90;;;;;;5053492;28;20459;-47
2023/11/23 06:17:53;;;;;;;13.27;9.43;;;2.30;99.90;;;;;;5053401;28;20031;-49
2023/11/23 06:20:19;;;;;;;13.60;8.98;;;2.20;99.90;;;;;;5053608;28;20400;-49
2023/11/23 06:22:45;;;;;;;12.70;8.63;;;2.20;99.90;;;;;;5052991;28;20515;-53
2023/11/23 06:25:12;;;;;;;15.25;9.23;;;2.20;99.90;;;;;;5053222;28;20027;-51
2023/11/23 06:27:37;;;;;;;12.57;8.98;;;2.20;99.90;;;;;;5053027;28;20021;-53
2023/11/23 06:30:05;;;;;;;14.43;8.63;;;2.20;99.90;;;;;;5053246;28;20040;-55
2023/11/23 06:32:31;;;;;;;13.70;8.75;;;2.20;99.90;;;;;;5052897;28;20029;-48
2023/11/23 06:34:57;;;;;;;15.70;8.77;;;2.20;99.90;;;;;;5053081;28;20025;-53
2023/11/23 06:37:22;;;;;;;14.13;8.48;;;2.20;99.90;;;;;;5053487;28;20064;-49
2023/11/23 06:39:48;;;;;;;16.65;9.00;;;2.20;99.90;;;;;;5053071;28;20443;-52
2023/11/23 06:42:13;;;;;;;10.82;7.97;;;2.30;99.90;;;;;;5052772;28;20590;-52
2023/11/23 06:44:39;;;;;;;12.40;8.43;;;2.20;99.90;;;;;;5053050;28;20080;-47
2023/11/23 06:47:05;;;;;;;14.20;9.43;;;2.30;99.90;;;;;;5052938;28;20033;-48
2023/11/23 06:49:31;;;;;;;11.90;8.05;;;2.30;99.90;;;;;;5052988;28;20402;-54
2023/11/23 06:51:56;;;;;;;14.52;8.98;;;2.30;99.90;;;;;;5052571;28;20028;-50
2023/11/23 06:54:22;;;;;;;12.02;8.88;;;2.50;99.90;;;;;;5052708;28;20025;-51
2023/11/23 06:56:47;;;;;;;13.98;8.93;;;2.50;99.90;;;;;;5052566;28;20036;-49
2023/11/23 06:59:13;;;;;;;12.43;8.75;;;2.50;99.90;;;;;;5052794;28;20035;-51
2023/11/23 07:01:38;;;;;;;18.00;9.82;;;2.50;99.90;;;;;;5051348;28;20067;-50
2023/11/23 07:04:04;;;;;;;12.10;8.57;;;2.50;99.90;;;;;;5052669;28;20054;-51
2023/11/23 07:06:29;;;;;;;16.95;9.18;;;2.50;99.90;;;;;;5050861;28;20121;-54
2023/11/23 07:08:57;;;;;;;12.93;9.15;;;2.60;99.90;;;;;;5052611;28;20466;-53
2023/11/23 07:11:22;;;;;;;10.57;8.10;;;2.70;99.90;;;;;;5054880;28;20392;-49
2023/11/23 07:13:49;;;;;;;11.68;8.43;;;2.70;99.90;;;;;;5049072;28;20036;-52
2023/11/23 07:16:15;;;;;;;19.25;8.48;;;2.70;99.90;;;;;;5048954;28;20123;-49
2023/11/23 07:18:41;;;;;;;13.50;8.27;;;2.70;99.90;;;;;;5050843;28;20052;-46
2023/11/23 07:21:07;;;;;;;13.85;8.93;;;2.70;99.90;;;;;;5050832;28;20457;-52
2023/11/23 07:23:32;;;;;;;11.90;8.60;;;2.70;99.90;;;;;;5048720;28;20029;-51
2023/11/23 07:25:58;;;;;;;12.35;8.55;;;2.80;99.90;;;;;;5051302;28;20040;-51
2023/11/23 07:28:26;;;;;;;15.65;9.30;;;2.70;99.90;;;;;;5051882;28;20025;-52
2023/11/23 07:30:53;;;;;;;14.30;9.10;;;2.70;99.90;;;;;;5050762;28;20028;-50
2023/11/23 07:33:19;;;;;;;13.23;9.15;;;2.70;99.90;;;;;;5050430;28;20161;-50
2023/11/23 07:35:48;;;;;;;15.63;7.63;;;2.70;99.90;;;;;;5051413;28;20025;-50
2023/11/23 07:38:14;;;;;;;11.48;8.23;;;2.70;99.90;;;;;;5051866;28;20049;-51
2023/11/23 07:40:39;;;;;;;14.38;9.80;;;2.70;99.90;;;;;;5051803;28;20084;-53
2023/11/23 07:43:05;;;;;;;15.25;8.88;;;2.90;99.90;;;;;;5051221;28;20444;-49
2023/11/23 07:45:31;;;;;;;17.33;8.52;;;2.90;99.90;;;;;;5051029;28;20029;-47
2023/11/23 07:47:57;;;;;;;13.50;9.00;;;2.90;99.90;;;;;;5051684;28;20032;-49
2023/11/23 07:50:22;;;;;;;19.45;10.13;;;2.90;99.90;;;;;;5052120;28;20559;-53
2023/11/23 07:52:48;;;;;;;19.35;9.35;;;2.90;99.90;;;;;;5051608;28;20112;-50
2023/11/23 07:55:17;;;;;;;14.43;7.65;;;2.90;99.90;;;;;;5051960;28;20021;-45
2023/11/23 07:57:47;;;;;;;15.43;8.82;;;;;;;;;;5051449;28;20021;-52
2023/11/23 08:00:13;;;;;;;14.65;8.27;;;3.10;99.90;;;;;;5051639;28;20090;-51
2023/11/23 08:02:39;;;;;;;16.15;8.48;;;3.10;99.90;;;;;;5051273;28;20025;-53
2023/11/23 08:05:05;;;;;;;15.45;8.48;;;3.10;99.90;;;;;;5050141;28;20025;-48
2023/11/23 08:07:30;;;;;;;15.82;9.15;;;3.10;99.90;;;;;;5051471;28;20024;-49
2023/11/23 08:09:57;;;;;;;17.23;8.40;;;3.10;99.90;;;;;;5051768;28;20108;-50
2023/11/23 08:12:23;;;;;;;12.38;8.77;;;3.10;99.90;;;;;;5051017;28;20067;-55
2023/11/23 08:14:48;;;;;;;14.77;8.70;;;3.20;99.90;;;;;;5051512;28;20024;-51
2023/11/23 08:17:14;;;;;;;17.85;8.75;;;3.30;99.90;;;;;;5051175;28;20023;-49
2023/11/23 08:19:39;;;;;;;16.60;8.00;;;3.30;99.90;;;;;;5051242;28;20039;-51
2023/11/23 08:22:08;;;;;;;12.35;7.93;;;3.30;99.90;;;;;;5051279;28;20031;-49
2023/11/23 08:24:34;;;;;;;14.18;9.15;;;3.30;99.90;;;;;;5049982;28;20090;-52
2023/11/23 08:27:00;;;;;;;13.32;9.30;;;3.20;99.90;;;;;;5050888;28;20028;-52
2023/11/23 08:29:28;;;;;;;13.77;8.93;;;3.20;99.90;;;;;;5051247;28;20070;-50
2023/11/23 08:31:53;;;;;;;10.73;8.23;;;3.30;99.90;;;;;;5051040;28;20469;-49
2023/11/23 08:34:19;;;;;;;18.75;9.13;;;3.30;99.90;;;;;;5049942;28;20036;-48
2023/11/23 08:36:44;;;;;;;17.67;9.07;;;3.40;99.90;;;;;;5051165;28;20029;-52
2023/11/23 08:39:12;;;;;;;12.18;8.38;;;3.40;99.90;;;;;;5051014;28;20037;-51
2023/11/23 08:41:38;;;;;;;12.75;8.70;;;3.50;99.90;;;;;;5050805;28;20021;-48
2023/11/23 08:44:04;;;;;;;11.52;8.70;;;3.50;99.90;;;;;;5051094;28;20101;-52
2023/11/23 08:46:30;;;;;;;14.52;8.70;;;3.50;99.90;;;;;;5051228;28;20052;-48
2023/11/23 08:48:55;;;;;;;12.68;8.38;;;3.50;99.90;;;;;;5055205;28;20052;-49
2023/11/23 08:51:22;;;;;;;13.02;8.25;;;3.60;99.90;;;;;;5053735;28;20552;-50
2023/11/23 08:53:47;;;;;;;17.05;8.25;;;3.60;99.90;;;;;;5054424;28;20100;-51
2023/11/23 08:56:13;;;;;;;12.40;8.18;;;3.70;99.90;;;;;;5054576;28;20100;-48
2023/11/23 08:58:39;;;;;;;12.48;8.45;;;3.70;99.90;;;;;;5054807;28;20057;-51
2023/11/23 09:01:05;;;;;;;12.63;8.07;;;3.70;99.90;;;;;;5054929;28;20021;-52
2023/11/23 09:03:30;;;;;;;18.38;8.98;;;3.80;99.90;;;;;;5054657;28;20017;-49
2023/11/23 09:05:58;;;;;;;19.20;8.70;;;3.90;99.90;;;;;;5054974;28;20029;-47
2023/11/23 09:08:23;;;;;;;14.38;8.85;;;4.00;99.90;;;;;;5054885;28;20388;-51
2023/11/23 09:10:49;;;;;;;13.25;8.38;;;4.00;99.90;;;;;;5054705;28;20032;-47
2023/11/23 09:13:15;;;;;;;13.40;8.88;;;4.10;99.90;;;;;;5054395;28;20032;-48
2023/11/23 09:15:41;;;;;;;13.15;8.63;;;4.20;99.90;;;;;;5054701;28;20100;-47
2023/11/23 09:18:06;;;;;;;16.10;8.45;;;4.30;99.90;;;;;;5053281;28;20389;-47
2023/11/23 09:20:32;;;;;;;12.88;8.95;;;4.30;99.90;;;;;;5054658;28;20036;-52
2023/11/23 09:22:59;;;;;;;13.23;8.20;;;4.50;99.90;;;;;;5054475;28;20036;-52
2023/11/23 09:25:24;;;;;;;24.13;11.68;;;4.50;99.90;;;;;;5054442;28;20047;-49
2023/11/23 09:27:50;;;;;;;22.95;9.90;;;4.50;99.90;;;;;;5054249;28;20473;-53
2023/11/23 09:30:16;;;;;;;13.95;8.93;;;4.50;99.90;;;;;;5054662;28;20079;-50
2023/11/23 09:32:42;;;;;;;14.45;9.50;;;4.60;99.90;;;;;;5052980;28;20086;-57
2023/11/23 09:35:10;;;;;;;14.80;7.78;;;4.70;99.90;;;;;;5054707;28;20112;-47
2023/11/23 09:37:39;;;;;;;13.95;8.98;;;4.80;99.90;;;;;;5054371;28;20120;-52
2023/11/23 09:40:09;;;;;;;15.85;9.13;;;4.80;99.90;;;;;;5054158;28;20385;-52
2023/11/23 09:42:38;;;;;;;27.02;9.65;;;4.80;99.90;;;;;;5053999;28;20017;-53
2023/11/23 09:45:06;;;;;;;14.95;9.50;;;4.90;99.90;;;;;;5053517;28;20067;-48
2023/11/23 09:47:34;;;;;;;14.48;9.57;;;5.00;99.90;;;;;;5054020;28;20029;-49
2023/11/23 09:50:01;;;;;;;15.80;9.10;;;5.00;99.90;;;;;;5054112;28;20024;-48
2023/11/23 09:52:30;;;;;;;14.23;9.48;;;5.00;99.90;;;;;;5053645;28;20025;-48
2023/11/23 09:54:57;;;;;;;11.63;8.50;;;5.00;99.90;;;;;;5054362;28;20071;-49
2023/11/23 09:57:26;;;;;;;14.52;10.20;;;5.00;99.90;;;;;;5053764;28;20090;-49
2023/11/23 09:59:51;;;;;;;14.93;8.98;;;5.00;99.90;;;;;;5054065;28;20494;-47
2023/11/23 10:02:21;;;;;;;12.65;9.50;;;5.00;99.90;;;;;;5052420;28;20082;-49
2023/11/23 10:04:49;;;;;;;21.20;9.80;;;5.00;99.90;;;;;;5054198;28;20036;-47
2023/11/23 10:07:19;;;;;;;23.10;9.95;;;5.00;99.90;;;;;;5053509;28;20033;-52
2023/11/23 10:09:48;;;;;;;12.77;8.18;;;5.00;99.90;;;;;;5053061;28;20028;-52
2023/11/23 10:12:14;;;;;;;19.52;10.30;;;5.10;99.90;;;;;;5054228;28;20092;-47
2023/11/23 10:14:40;;;;;;;17.98;11.02;;;5.10;99.90;;;;;;5054466;28;20048;-49
2023/11/23 10:17:06;;;;;;;15.25;8.88;;;5.10;99.90;;;;;;5056473;28;20025;-50
2023/11/23 10:19:32;;;;;;;13.98;8.55;;;5.20;99.90;;;;;;5056256;28;20083;-50
2023/11/23 10:22:03;;;;;;;13.98;9.43;;;5.20;99.90;;;;;;5053448;28;20071;-50
2023/11/23 10:24:29;;;;;;;20.30;10.20;;;5.20;99.90;;;;;;5053566;28;20419;-51
2023/11/23 10:26:55;;;;;;;14.63;9.00;;;5.20;99.90;;;;;;5053788;28;20041;-53
2023/11/23 10:29:26;;;;;;;13.15;9.23;;;5.20;99.90;;;;;;5053394;28;20025;-49
2023/11/23 10:31:53;;;;;;;17.73;10.60;;;5.30;99.90;;;;;;5052903;28;20055;-55
2023/11/23 10:34:18;;;;;;;15.45;8.80;;;5.30;99.90;;;;;;5053294;28;20429;-50
2023/11/23 10:36:48;;;;;;;11.70;8.77;;;5.40;99.90;;;;;;5053295;28;20121;-54
2023/11/23 10:39:18;;;;;;;16.25;10.10;;;5.50;99.90;;;;;;5052921;28;20047;-50
2023/11/23 10:41:47;;;;;;;13.73;9.13;;;5.50;99.90;;;;;;5053059;28;20082;-50
2023/11/23 10:44:12;;;;;;;16.00;9.38;;;5.50;99.90;;;;;;5051472;28;20025;-50
2023/11/23 10:46:39;;;;;;;13.57;9.35;;;5.60;99.90;;;;;;5052066;28;20492;-44
2023/11/23 10:49:08;;;;;;;18.05;9.93;;;5.60;99.90;;;;;;5051517;28;20108;-52
2023/11/23 10:51:34;;;;;;;13.82;9.27;;;5.70;99.90;;;;;;5052722;28;20083;-49
2023/11/23 10:54:01;;;;;;;19.40;8.73;;;5.70;99.90;;;;;;5048599;28;20125;-48
2023/11/23 10:56:29;;;;;;;12.15;8.68;;;5.70;99.90;;;;;;5052515;28;20079;-47
2023/11/23 10:58:59;;;;;;;12.35;8.73;;;5.90;99.90;;;;;;5051300;28;20159;-47
2023/11/23 11:01:26;;;;;;;13.38;9.43;;;6.00;99.90;;;;;;5051122;28;20074;-46
2023/11/23 11:03:52;;;;;;;13.00;8.77;;;6.10;99.90;;;;;;5052004;28;20055;-51
2023/11/23 11:06:20;;;;;;;13.63;8.82;;;6.10;99.90;;;;;;5052745;28;20040;-47
2023/11/23 11:08:48;;;;;;;12.88;8.93;;;6.20;99.90;;;;;;5052604;28;20028;-52
2023/11/23 11:11:21;;;;;;;11.52;8.77;;;6.20;99.90;;;;;;5051828;28;20503;-50
2023/11/23 11:13:46;;;;;;;16.27;9.30;;;6.30;99.90;;;;;;5051243;28;20029;-48
2023/11/23 11:16:14;;;;;;;12.98;8.38;;;6.30;99.90;;;;;;5052433;28;20028;-51
2023/11/23 11:18:48;;;;;;;31.95;10.30;;;6.30;99.90;;;;;;5052229;28;20029;-48
2023/11/23 11:21:17;;;;;;;14.95;9.82;;;6.40;99.90;;;;;;5052591;28;20028;-47
2023/11/23 11:23:49;;;;;;;16.65;9.57;;;6.40;99.90;;;;;;5051593;28;20021;-48
2023/11/23 11:26:24;;;;;;;14.60;10.05;;;6.40;99.90;;;;;;5050507;28;20032;-48
2023/11/23 11:28:55;;;;;;;17.73;10.80;;;6.30;99.90;;;;;;5051818;28;20449;-50
2023/11/23 11:31:37;;;;;;;14.82;10.18;;;6.40;99.90;;;;;;5052052;28;20476;-48
2023/11/23 11:34:14;;;;;;;14.85;9.43;;;6.40;99.90;;;;;;5052164;28;20032;-53
2023/11/23 11:36:43;;;;;;;57.78;30.70;;;6.50;99.90;;;;;;5051975;28;20409;-54
2023/11/23 11:39:12;;;;;;;23.88;13.55;;;6.50;99.90;;;;;;5050766;28;20031;-48
2023/11/23 11:41:38;;;;;;;19.83;11.57;;;6.40;99.90;;;;;;5051806;28;20024;-50
2023/11/23 11:44:11;;;;;;;24.50;10.68;;;6.50;99.90;;;;;;5050035;28;20461;-47
2023/11/23 11:46:37;;;;;;;21.55;12.18;;;6.50;99.90;;;;;;5050581;28;20017;-52
2023/11/23 11:49:03;;;;;;;18.40;11.55;;;6.60;99.90;;;;;;5051499;28;20017;-53
2023/11/23 11:51:30;;;;;;;23.80;13.25;;;6.60;99.90;;;;;;5051789;28;20025;-48
2023/11/23 11:53:56;;;;;;;22.25;11.15;;;6.70;99.90;;;;;;5047172;28;20091;-49
2023/11/23 11:56:22;;;;;;;18.17;11.60;;;6.60;99.90;;;;;;5031711;28;20033;-54
2023/11/23 11:58:49;;;;;;;14.32;9.95;;;6.70;99.90;;;;;;5029586;28;20485;-48
2023/11/23 12:01:18;;;;;;;19.58;11.50;;;6.60;99.90;;;;;;5029496;28;20037;-50
2023/11/23 12:03:47;;;;;;;19.20;12.32;;;6.60;99.90;;;;;;5029690;28;20026;-55
2023/11/23 12:06:13;;;;;;;20.23;11.00;;;6.60;99.90;;;;;;5049233;28;20058;-49
2023/11/23 12:08:39;;;;;;;17.63;11.13;;;6.60;99.90;;;;;;5050459;28;20112;-52
2023/11/23 12:11:06;;;;;;;21.73;11.20;;;6.60;99.90;;;;;;5050998;28;20029;-52
2023/11/23 12:13:35;;;;;;;22.30;11.25;;;6.70;99.90;;;;;;5049543;28;20025;-51
2023/11/23 12:16:01;;;;;;;18.42;11.15;;;6.60;99.90;;;;;;5049934;28;20028;-50
2023/11/23 12:18:39;;;;;;;18.17;10.98;;;6.70;99.90;;;;;;5048206;28;20055;-50
2023/11/23 12:21:14;;;;;;;20.77;11.30;;;6.60;99.90;;;;;;5051037;28;20031;-50
2023/11/23 12:23:44;;;;;;;18.45;10.73;;;6.70;99.90;;;;;;5051248;28;20154;-56
2023/11/23 12:26:10;;;;;;;16.63;11.85;;;6.70;99.90;;;;;;5049812;28;20032;-50
2023/11/23 12:28:37;;;;;;;19.45;11.77;;;6.70;99.90;;;;;;5048882;28;20031;-50
2023/11/23 12:31:02;;;;;;;18.55;12.20;;;6.70;99.90;;;;;;5049435;28;20029;-51
2023/11/23 12:33:28;;;;;;;22.45;12.52;;;6.70;99.90;;;;;;5050932;28;20029;-47
2023/11/23 12:35:54;;;;;;;20.90;11.90;;;6.70;99.90;;;;;;5049802;28;20031;-47
2023/11/23 12:38:19;;;;;;;18.05;11.68;;;6.80;99.90;;;;;;5050753;28;20053;-46
2023/11/23 12:40:45;;;;;;;24.40;12.05;;;6.70;99.90;;;;;;5050058;28;20021;-44